createdAt,value
2019-02-27T00:04:02.507Z,8.11
2019-02-27T00:08:11.031Z,8.09
2019-02-27T00:12:19.323Z,8.02
2019-02-27T00:16:26.511Z,7.99
2019-02-27T00:20:36.873Z,7.98
2019-02-27T00:24:41.868Z,7.96
2019-02-27T00:28:48.830Z,7.96
2019-02-27T00:32:55.650Z,7.87
2019-02-27T00:37:02.530Z,7.80
2019-02-27T00:41:11.988Z,7.62
2019-02-27T00:45:17.995Z,7.28
2019-02-27T00:49:24.773Z,6.88
2019-02-27T00:53:31.752Z,6.66
2019-02-27T00:57:38.701Z,6.81
2019-02-27T01:01:47.495Z,6.77
2019-02-27T01:05:54.109Z,6.75
2019-02-27T01:10:01.458Z,6.68
2019-02-27T01:14:11.974Z,6.53
2019-02-27T01:18:18.890Z,6.48
2019-02-27T01:22:25.779Z,6.38
2019-02-27T01:26:32.599Z,6.34
2019-02-27T01:30:39.388Z,6.13
2019-02-27T01:34:46.284Z,6.04
2019-02-27T01:38:53.184Z,5.90
2019-02-27T01:43:00.034Z,5.77
2019-02-27T01:47:06.859Z,5.89
2019-02-27T01:51:13.843Z,5.76
2019-02-27T01:55:22.413Z,5.71
2019-02-27T01:59:29.195Z,5.56
2019-02-27T02:03:36.050Z,5.43
2019-02-27T02:07:44.164Z,5.38
2019-02-27T02:11:50.975Z,5.21
2019-02-27T02:16:34.915Z,5.17
2019-02-27T02:21:01.734Z,5.19
2019-02-27T02:26:01.068Z,5.18
2019-02-27T02:31:18.593Z,5.04
2019-02-27T02:35:59.927Z,5.08
2019-02-27T02:40:54.129Z,5.19
2019-02-27T02:45:41.066Z,5.24
2019-02-27T02:50:40.234Z,5.33
2019-02-27T02:55:57.295Z,5.36
2019-02-27T03:00:39.506Z,5.22
2019-02-27T03:05:46.644Z,5.21
2019-02-27T03:10:22.256Z,5.01
2019-02-27T03:14:58.769Z,4.91
2019-02-27T03:19:43.823Z,4.81
2019-02-27T03:24:47.285Z,4.66
2019-02-27T03:29:40.489Z,4.55
2019-02-27T03:35:27.486Z,4.57
2019-02-27T03:40:19.129Z,4.37
2019-02-27T03:45:32.406Z,4.09
2019-02-27T03:50:29.232Z,3.99
2019-02-27T03:55:31.900Z,3.85
2019-02-27T04:00:10.690Z,3.76
2019-02-27T04:04:57.921Z,3.97
2019-02-27T04:09:09.547Z,3.98
2019-02-27T04:13:16.948Z,4.06
2019-02-27T04:17:30.856Z,4.12
2019-02-27T04:21:37.946Z,4.16
2019-02-27T04:25:44.778Z,4.21
2019-02-27T04:29:51.593Z,4.24
2019-02-27T04:34:00.380Z,4.25
2019-02-27T04:38:07.287Z,4.25
2019-02-27T04:42:14.305Z,4.29
2019-02-27T04:46:21.712Z,4.29
2019-02-27T04:50:30.278Z,4.29
2019-02-27T04:54:41.301Z,4.28
2019-02-27T04:58:46.013Z,4.29
2019-02-27T05:02:53.548Z,4.21
2019-02-27T05:07:01.226Z,4.19
2019-02-27T05:11:08.479Z,4.12
2019-02-27T05:15:16.483Z,4.07
2019-02-27T05:19:26.576Z,4.08
2019-02-27T05:23:35.072Z,4.06
2019-02-27T05:27:42.415Z,3.96
2019-02-27T05:32:08.311Z,3.83
2019-02-27T05:36:16.781Z,3.62
2019-02-27T05:40:25.954Z,3.26
2019-02-27T05:44:32.356Z,3.37
2019-02-27T05:48:39.311Z,3.24
2019-02-27T05:52:48.779Z,3.07
2019-02-27T05:56:56.276Z,2.83
2019-02-27T06:01:04.963Z,2.80
2019-02-27T06:05:11.861Z,2.73
2019-02-27T06:09:19.484Z,2.68
2019-02-27T06:13:26.459Z,2.54
2019-02-27T06:17:43.149Z,2.57
2019-02-27T06:21:42.476Z,2.69
2019-02-27T06:25:49.507Z,2.41
2019-02-27T06:29:57.087Z,2.39
2019-02-27T06:34:05.440Z,2.32
2019-02-27T06:38:12.286Z,2.26
2019-02-27T06:42:19.236Z,2.24
2019-02-27T06:46:26.405Z,2.09
2019-02-27T06:50:34.672Z,2.10
2019-02-27T06:54:41.673Z,2.15
2019-02-27T06:58:50.128Z,2.15
2019-02-27T07:02:57.272Z,2.20
2019-02-27T07:07:04.150Z,2.26
2019-02-27T07:11:11.394Z,2.31
2019-02-27T07:15:19.861Z,2.47
2019-02-27T07:19:27.103Z,2.41
2019-02-27T07:23:35.288Z,2.40
2019-02-27T07:27:43.584Z,2.66
2019-02-27T07:31:52.186Z,2.80
2019-02-27T07:36:03.449Z,2.90
2019-02-27T07:40:11.538Z,3.18
2019-02-27T07:44:18.500Z,3.64
2019-02-27T07:48:25.758Z,3.98
2019-02-27T07:52:33.341Z,4.29
2019-02-27T07:56:46.807Z,4.60
2019-02-27T08:00:53.668Z,4.94
2019-02-27T08:05:00.621Z,5.23
2019-02-27T08:09:08.359Z,5.50
2019-02-27T08:13:15.317Z,6.00
2019-02-27T08:17:23.552Z,6.24
2019-02-27T08:21:30.773Z,6.53
2019-02-27T08:25:37.758Z,7.30
2019-02-27T08:29:44.782Z,7.64
2019-02-27T08:33:51.731Z,8.01
2019-02-27T08:38:02.442Z,8.61
2019-02-27T08:42:08.764Z,8.47
2019-02-27T08:46:15.711Z,9.09
2019-02-27T08:50:22.750Z,9.91
2019-02-27T08:54:33.058Z,10.04
2019-02-27T08:58:38.831Z,11.13
2019-02-27T09:02:46.391Z,10.71
2019-02-27T09:06:53.873Z,11.25
2019-02-27T09:11:05.371Z,11.52
2019-02-27T09:15:10.350Z,12.64
2019-02-27T09:19:17.405Z,13.07
2019-02-27T09:23:24.208Z,13.19
2019-02-27T09:27:32.961Z,13.47
2019-02-27T09:31:50.263Z,12.86
2019-02-27T09:35:48.329Z,12.91
2019-02-27T09:39:55.163Z,12.58
2019-02-27T09:44:02.146Z,13.08
2019-02-27T09:48:09.114Z,12.88
2019-02-27T09:52:16.102Z,12.64
2019-02-27T09:56:22.950Z,12.80
2019-02-27T10:00:38.972Z,13.00
2019-02-27T10:04:46.150Z,12.87
2019-02-27T10:08:53.195Z,12.76
2019-02-27T10:13:03.287Z,12.78
2019-02-27T10:17:10.139Z,13.69
2019-02-27T10:21:17.037Z,13.22
2019-02-27T10:25:23.957Z,13.17
2019-02-27T10:29:30.784Z,13.12
2019-02-27T10:33:39.468Z,13.31
2019-02-27T10:37:50.388Z,12.93
2019-02-27T10:41:55.061Z,13.25
2019-02-27T10:46:02.016Z,13.72
2019-02-27T10:50:09.533Z,13.37
2019-02-27T10:54:16.479Z,13.75
2019-02-27T10:58:24.698Z,14.27
2019-02-27T11:02:31.698Z,14.46
2019-02-27T11:06:40.923Z,14.67
2019-02-27T11:10:47.848Z,14.84
2019-02-27T11:14:55.070Z,14.56
2019-02-27T11:19:03.089Z,15.17
2019-02-27T11:23:09.966Z,15.34
2019-02-27T11:27:16.994Z,15.95
2019-02-27T11:31:24.132Z,15.76
2019-02-27T11:35:31.116Z,15.98
2019-02-27T11:39:37.990Z,15.54
2019-02-27T11:43:45.064Z,16.20
2019-02-27T11:47:52.112Z,16.50
2019-02-27T11:51:59.100Z,16.97
2019-02-27T11:56:05.989Z,17.46
2019-02-27T12:00:24.181Z,18.36
2019-02-27T12:04:31.147Z,18.81
2019-02-27T12:08:38.016Z,19.20
2019-02-27T12:12:44.942Z,20.41
2019-02-27T12:16:52.476Z,20.98
2019-02-27T12:20:59.593Z,21.33
2019-02-27T12:25:07.338Z,21.18
2019-02-27T12:29:14.251Z,21.95
2019-02-27T12:33:21.210Z,22.55
2019-02-27T12:37:31.553Z,22.87
2019-02-27T12:41:37.182Z,23.29
2019-02-27T12:45:44.001Z,22.80
2019-02-27T12:49:51.542Z,24.22
2019-02-27T12:53:59.640Z,22.85
2019-02-27T12:58:13.473Z,24.14
2019-02-27T13:02:24.420Z,24.11
2019-02-27T13:06:29.165Z,24.42
2019-02-27T13:10:36.018Z,24.11
2019-02-27T13:14:43.005Z,24.50
2019-02-27T13:18:49.926Z,24.03
2019-02-27T13:22:56.854Z,24.68
2019-02-27T13:27:06.542Z,24.78
2019-02-27T13:31:20.127Z,24.86
2019-02-27T13:35:28.693Z,25.61
2019-02-27T13:39:35.793Z,24.93
2019-02-27T13:43:42.633Z,23.48
2019-02-27T13:47:49.492Z,24.17
2019-02-27T13:51:56.316Z,23.64
2019-02-27T13:56:03.127Z,24.51
2019-02-27T14:00:21.540Z,24.91
2019-02-27T14:04:28.645Z,24.25
2019-02-27T14:08:35.517Z,24.00
2019-02-27T14:12:42.413Z,23.46
2019-02-27T14:16:49.382Z,22.85
2019-02-27T14:20:56.219Z,22.32
2019-02-27T14:25:03.075Z,22.29
2019-02-27T14:29:21.978Z,21.69
2019-02-27T14:33:28.830Z,21.50
2019-02-27T14:37:35.695Z,21.16
2019-02-27T14:41:42.621Z,20.25
2019-02-27T14:45:50.813Z,20.20
2019-02-27T14:49:59.395Z,20.03
2019-02-27T14:54:06.430Z,19.91
2019-02-27T14:58:13.351Z,19.83
2019-02-27T15:02:22.421Z,19.16
2019-02-27T15:06:29.358Z,19.34
2019-02-27T15:10:40.261Z,19.19
2019-02-27T15:14:46.164Z,18.96
2019-02-27T15:18:55.823Z,18.97
2019-02-27T15:23:01.693Z,18.66
2019-02-27T15:27:08.708Z,18.56
2019-02-27T15:31:18.123Z,18.42
2019-02-27T15:35:28.333Z,18.42
2019-02-27T15:39:35.351Z,18.38
2019-02-27T15:43:42.322Z,18.33
2019-02-27T15:47:49.404Z,18.32
2019-02-27T15:51:56.408Z,18.27
2019-02-27T15:56:05.481Z,18.15
2019-02-27T16:00:18.493Z,18.07
2019-02-27T16:04:25.430Z,18.01
2019-02-27T16:08:32.360Z,17.87
2019-02-27T16:12:39.388Z,17.77
2019-02-27T16:16:47.608Z,17.78
2019-02-27T16:20:54.853Z,17.72
2019-02-27T16:25:01.724Z,17.64
2019-02-27T16:29:09.124Z,17.54
2019-02-27T16:33:23.144Z,17.47
2019-02-27T16:37:25.767Z,17.44
2019-02-27T16:41:32.940Z,17.25
2019-02-27T16:45:40.570Z,17.21
2019-02-27T16:50:00.515Z,17.09
2019-02-27T16:54:08.444Z,17.00
2019-02-27T16:58:15.378Z,16.91
2019-02-27T17:02:22.275Z,16.81
2019-02-27T17:06:29.352Z,16.71
2019-02-27T17:10:36.591Z,16.55
2019-02-27T17:14:45.069Z,16.44
2019-02-27T17:18:52.081Z,16.27
2019-02-27T17:22:58.970Z,16.19
2019-02-27T17:27:05.963Z,16.10
2019-02-27T17:31:12.988Z,16.03
2019-02-27T17:35:23.601Z,15.92
2019-02-27T17:39:30.883Z,15.70
2019-02-27T17:43:38.074Z,15.61
2019-02-27T17:47:45.168Z,15.53
2019-02-27T17:51:52.205Z,15.36
2019-02-27T17:55:59.481Z,15.12
2019-02-27T18:00:19.268Z,14.97
2019-02-27T18:04:26.387Z,14.79
2019-02-27T18:08:33.525Z,14.60
2019-02-27T18:12:40.667Z,14.46
2019-02-27T18:16:47.826Z,14.25
2019-02-27T18:20:56.734Z,14.11
2019-02-27T18:25:07.443Z,14.03
2019-02-27T18:29:15.295Z,13.87
2019-02-27T18:33:22.204Z,13.87
2019-02-27T18:37:29.721Z,13.73
2019-02-27T18:41:36.850Z,13.64
2019-02-27T18:45:43.728Z,13.76
2019-02-27T18:49:52.188Z,13.71
2019-02-27T18:53:59.402Z,13.56
2019-02-27T18:58:06.541Z,13.52
2019-02-27T19:02:13.875Z,13.31
2019-02-27T19:06:21.171Z,13.23
2019-02-27T19:10:28.239Z,13.11
2019-02-27T19:14:36.781Z,12.99
2019-02-27T19:18:44.477Z,12.84
2019-02-27T19:22:51.884Z,12.73
2019-02-27T19:26:59.078Z,12.68
2019-02-27T19:31:06.394Z,12.59
2019-02-27T19:35:14.825Z,12.62
2019-02-27T19:39:22.529Z,12.53
2019-02-27T19:43:29.868Z,12.47
2019-02-27T19:47:36.790Z,12.54
2019-02-27T19:51:45.062Z,12.51
2019-02-27T19:55:52.299Z,12.45
2019-02-27T19:59:59.783Z,12.36
2019-02-27T20:04:09.650Z,12.26
2019-02-27T20:08:16.168Z,12.17
2019-02-27T20:12:23.124Z,12.04
2019-02-27T20:16:32.386Z,11.90
2019-02-27T20:20:41.154Z,11.64
2019-02-27T20:24:50.465Z,11.58
2019-02-27T20:28:58.037Z,11.44
2019-02-27T20:33:12.337Z,11.21
2019-02-27T20:37:20.312Z,11.05
2019-02-27T20:41:31.270Z,10.88
2019-02-27T20:45:40.021Z,10.72
2019-02-27T20:49:51.025Z,10.53
2019-02-27T20:53:58.193Z,10.31
2019-02-27T20:58:05.196Z,10.14
2019-02-27T21:02:12.338Z,9.98
2019-02-27T21:06:21.746Z,9.91
2019-02-27T21:10:28.796Z,9.72
2019-02-27T21:14:35.774Z,9.57
2019-02-27T21:18:42.867Z,9.50
2019-02-27T21:22:49.832Z,9.37
2019-02-27T21:26:57.335Z,9.43
2019-02-27T21:31:05.407Z,9.35
2019-02-27T21:35:12.814Z,9.23
2019-02-27T21:39:22.563Z,9.24
2019-02-27T21:43:29.921Z,9.12
2019-02-27T21:47:40.163Z,9.08
2019-02-27T21:51:48.092Z,9.02
2019-02-27T21:56:03.938Z,8.93
2019-02-27T22:00:17.544Z,8.80
2019-02-27T22:04:24.733Z,8.81
2019-02-27T22:08:31.677Z,8.64
2019-02-27T22:12:38.612Z,8.44
2019-02-27T22:16:45.609Z,8.32
2019-02-27T22:20:52.536Z,8.28
2019-02-27T22:24:59.639Z,7.98
2019-02-27T22:29:07.787Z,7.93
2019-02-27T22:33:14.736Z,7.91
2019-02-27T22:37:21.715Z,7.91
2019-02-27T22:41:28.536Z,7.68
2019-02-27T22:45:40.484Z,7.72
2019-02-27T22:49:45.008Z,7.54
2019-02-27T22:53:51.978Z,7.60
2019-02-27T22:57:58.855Z,7.52
2019-02-27T23:02:07.107Z,7.45
2019-02-27T23:06:14.205Z,7.34
2019-02-27T23:10:21.254Z,7.18
2019-02-27T23:14:28.375Z,7.24
2019-02-27T23:18:37.472Z,7.21
2019-02-27T23:22:43.832Z,7.17
2019-02-27T23:26:54.364Z,7.17
2019-02-27T23:30:59.552Z,7.15
2019-02-27T23:35:06.641Z,7.05
2019-02-27T23:39:13.515Z,7.00
2019-02-27T23:43:20.495Z,6.89
2019-02-27T23:47:28.762Z,6.91
2019-02-27T23:51:35.932Z,6.85
2019-02-27T23:55:44.582Z,6.89
2019-02-27T23:59:51.375Z,6.77
